Bhaktapur, Nepal
Current Conditions -  °F | °C
As of 12:50 PM on Saturday 20 Dec 2014 (Local Time) from VNKT Reporting Station
Few Clouds Few Clouds  
Wind Chill: 64°   Ceiling: Unl
Heat Index: 64°   Visibility: 4mi
Dew Point: 32°   Wind: 0mph
Humidity: 30%   Direction: NA
Pressure: 30.03"   Gusts: NA
Location:  27.67°N, 85.43°E
Report Text: VNKT 200750Z 00000KT 7000 FEW025 18/00 Q1017 NOSIG
Loading
Personal Weather Stations






























Interactive Weather Map New forecast layout! Learn more

10-Day Weather Forecast

Advertisements
Track Severe Weather on mobile